createdAt,value
2022-12-01T00:01:29.729Z,10.80
2022-12-01T00:03:57.857Z,10.74
2022-12-01T00:06:26.003Z,10.62
2022-12-01T00:09:18.024Z,10.61
2022-12-01T00:11:47.827Z,10.61
2022-12-01T00:14:16.461Z,10.61
2022-12-01T00:16:45.022Z,10.61
2022-12-01T00:19:13.697Z,10.62
2022-12-01T00:21:42.050Z,10.65
2022-12-01T00:24:12.758Z,10.64
2022-12-01T00:26:41.293Z,10.65
2022-12-01T00:29:09.930Z,10.65
2022-12-01T00:31:38.138Z,10.64
2022-12-01T00:34:10.974Z,10.62
2022-12-01T00:36:39.961Z,10.60
2022-12-01T00:39:08.243Z,10.58
2022-12-01T00:41:37.826Z,10.57
2022-12-01T00:44:06.607Z,10.57
2022-12-01T00:46:34.915Z,10.57
2022-12-01T00:49:03.144Z,10.57
2022-12-01T00:51:31.428Z,10.57
2022-12-01T00:53:59.676Z,10.57
2022-12-01T00:56:27.782Z,10.55
2022-12-01T00:58:57.286Z,10.56
2022-12-01T01:01:25.536Z,10.61
2022-12-01T01:03:54.306Z,10.45
2022-12-01T01:06:22.547Z,10.45
2022-12-01T01:08:50.986Z,10.48
2022-12-01T01:11:19.120Z,10.48
2022-12-01T01:13:47.293Z,10.45
2022-12-01T01:16:20.086Z,10.46
2022-12-01T01:18:49.081Z,10.44
2022-12-01T01:21:19.247Z,10.42
2022-12-01T01:23:47.644Z,10.42
2022-12-01T01:26:19.659Z,10.42
2022-12-01T01:28:48.664Z,10.40
2022-12-01T01:31:20.550Z,10.44
2022-12-01T01:33:49.344Z,10.43
2022-12-01T01:36:18.229Z,10.40
2022-12-01T01:38:46.837Z,10.42
2022-12-01T01:41:15.232Z,10.38
2022-12-01T01:43:46.383Z,10.39
2022-12-01T01:46:18.199Z,10.37
2022-12-01T01:48:50.832Z,10.39
2022-12-01T01:51:23.577Z,10.38
2022-12-01T01:53:54.955Z,10.34
2022-12-01T01:56:23.693Z,10.32
2022-12-01T01:58:54.019Z,10.34
2022-12-01T02:01:23.537Z,10.33
2022-12-01T02:03:54.899Z,10.30
2022-12-01T02:06:24.882Z,10.30
2022-12-01T02:08:53.286Z,10.30
2022-12-01T02:11:53.334Z,10.29
2022-12-01T02:14:42.569Z,10.28
2022-12-01T02:17:24.066Z,10.28
2022-12-01T02:20:21.854Z,10.28
2022-12-01T02:23:02.955Z,10.27
2022-12-01T02:25:42.458Z,10.27
2022-12-01T02:28:45.523Z,10.26
2022-12-01T02:31:18.852Z,10.24
2022-12-01T02:33:52.574Z,10.29
2022-12-01T02:36:29.633Z,10.34
2022-12-01T02:39:02.678Z,10.32
2022-12-01T02:41:38.343Z,10.30
2022-12-01T02:44:12.196Z,10.29
2022-12-01T02:46:45.755Z,10.27
2022-12-01T02:49:18.052Z,10.27
2022-12-01T02:51:47.110Z,10.28
2022-12-01T02:54:16.685Z,10.23
2022-12-01T02:56:46.120Z,10.25
2022-12-01T02:59:16.547Z,10.25
2022-12-01T03:01:57.156Z,10.24
2022-12-01T03:04:52.561Z,10.22
2022-12-01T03:07:41.748Z,10.23
2022-12-01T03:10:18.011Z,10.24
2022-12-01T03:12:58.707Z,10.21
2022-12-01T03:15:35.869Z,10.21
2022-12-01T03:18:12.401Z,10.20
2022-12-01T03:20:47.351Z,10.20
2022-12-01T03:23:19.242Z,10.19
2022-12-01T03:25:50.580Z,10.18
2022-12-01T03:28:22.624Z,10.16
2022-12-01T03:30:57.096Z,10.16
2022-12-01T03:33:30.965Z,10.15
2022-12-01T03:36:04.390Z,10.16
2022-12-01T03:38:36.343Z,10.10
2022-12-01T03:41:08.681Z,10.15
2022-12-01T03:43:42.166Z,10.15
2022-12-01T03:46:15.132Z,10.14
2022-12-01T03:48:45.155Z,10.15
2022-12-01T03:51:17.242Z,10.13
2022-12-01T03:53:53.888Z,10.15
2022-12-01T03:56:27.366Z,10.16
2022-12-01T03:58:58.766Z,10.11
2022-12-01T04:01:32.717Z,10.11
2022-12-01T04:04:07.741Z,10.11
2022-12-01T04:06:36.128Z,10.10
2022-12-01T04:09:04.827Z,10.09
2022-12-01T04:11:50.517Z,10.09
2022-12-01T04:14:18.872Z,10.07
2022-12-01T04:16:46.946Z,10.06
2022-12-01T04:19:16.856Z,10.05
2022-12-01T04:21:45.082Z,10.05
2022-12-01T04:24:13.359Z,10.03
2022-12-01T04:26:42.202Z,10.02
2022-12-01T04:29:13.399Z,10.02
2022-12-01T04:31:41.706Z,10.01
2022-12-01T04:34:11.500Z,10.00
2022-12-01T04:36:40.939Z,9.97
2022-12-01T04:39:09.048Z,9.99
2022-12-01T04:41:37.217Z,9.99
2022-12-01T04:44:05.673Z,9.97
2022-12-01T04:46:33.995Z,9.95
2022-12-01T04:49:02.133Z,9.95
2022-12-01T04:51:30.159Z,9.93
2022-12-01T04:53:59.679Z,9.90
2022-12-01T04:56:27.706Z,9.89
2022-12-01T04:58:56.146Z,9.89
2022-12-01T05:01:24.232Z,9.90
2022-12-01T05:03:52.448Z,9.89
2022-12-01T05:06:22.552Z,9.91
2022-12-01T05:08:51.810Z,9.87
2022-12-01T05:11:21.595Z,9.87
2022-12-01T05:13:50.641Z,9.81
2022-12-01T05:16:20.650Z,9.81
2022-12-01T05:18:50.404Z,9.81
2022-12-01T05:21:18.253Z,9.80
2022-12-01T05:23:46.570Z,9.81
2022-12-01T05:26:14.641Z,9.77
2022-12-01T05:28:44.137Z,9.80
2022-12-01T05:31:12.404Z,9.80
2022-12-01T05:33:40.509Z,9.79
2022-12-01T05:36:09.294Z,9.79
2022-12-01T05:38:37.427Z,9.78
2022-12-01T05:41:05.730Z,9.77
2022-12-01T05:43:33.867Z,9.80
2022-12-01T05:46:03.829Z,9.78
2022-12-01T05:48:32.025Z,9.77
2022-12-01T05:51:00.270Z,9.77
2022-12-01T05:53:28.310Z,9.77
2022-12-01T05:55:56.666Z,9.77
2022-12-01T05:58:24.774Z,9.75
2022-12-01T06:00:52.910Z,9.77
2022-12-01T06:03:22.633Z,9.75
2022-12-01T06:05:51.097Z,9.73
2022-12-01T06:08:19.276Z,9.72
2022-12-01T06:10:48.566Z,9.74
2022-12-01T06:13:17.057Z,9.71
2022-12-01T06:15:45.264Z,9.71
2022-12-01T06:18:13.403Z,9.72
2022-12-01T06:20:42.824Z,9.71
2022-12-01T06:23:10.883Z,9.71
2022-12-01T06:25:38.936Z,9.72
2022-12-01T06:28:07.029Z,9.71
2022-12-01T06:30:35.208Z,9.69
2022-12-01T06:33:03.302Z,9.69
2022-12-01T06:35:31.524Z,9.68
2022-12-01T06:38:01.427Z,9.68
2022-12-01T06:40:29.663Z,9.69
2022-12-01T06:43:00.712Z,9.68
2022-12-01T06:45:28.935Z,9.66
2022-12-01T06:47:57.585Z,9.66
2022-12-01T06:50:26.237Z,9.66
2022-12-01T06:52:59.481Z,9.66
2022-12-01T06:55:29.065Z,9.66
2022-12-01T06:58:00.910Z,9.64
2022-12-01T07:00:30.383Z,9.65
2022-12-01T07:02:59.111Z,9.64
2022-12-01T07:05:27.414Z,9.63
2022-12-01T07:07:59.451Z,9.66
2022-12-01T07:10:29.492Z,9.64
2022-12-01T07:12:58.164Z,9.65
2022-12-01T07:15:26.247Z,9.63
2022-12-01T07:17:54.350Z,9.63
2022-12-01T07:20:22.519Z,9.64
2022-12-01T07:22:50.603Z,9.63
2022-12-01T07:25:18.784Z,9.65
2022-12-01T07:27:49.265Z,9.65
2022-12-01T07:30:17.718Z,9.65
2022-12-01T07:32:46.207Z,9.64
2022-12-01T07:35:14.435Z,9.62
2022-12-01T07:37:42.778Z,9.61
2022-12-01T07:40:12.334Z,9.62
2022-12-01T07:42:42.622Z,9.62
2022-12-01T07:45:12.310Z,9.60
2022-12-01T07:47:40.371Z,9.59
2022-12-01T07:50:09.396Z,9.60
2022-12-01T07:52:37.666Z,9.62
2022-12-01T07:55:06.493Z,9.62
2022-12-01T07:57:34.670Z,9.62
2022-12-01T08:00:03.392Z,9.62
2022-12-01T08:02:36.469Z,9.61
2022-12-01T08:05:04.902Z,9.61
2022-12-01T08:07:33.128Z,9.63
2022-12-01T08:10:01.307Z,9.62
2022-12-01T08:12:29.579Z,9.61
2022-12-01T08:14:57.687Z,9.63
2022-12-01T08:17:25.856Z,9.61
2022-12-01T08:19:55.362Z,9.64
2022-12-01T08:22:23.434Z,9.65
2022-12-01T08:24:51.647Z,9.65
2022-12-01T08:27:19.806Z,9.66
2022-12-01T08:29:48.243Z,9.67
2022-12-01T08:32:17.983Z,9.67
2022-12-01T08:34:51.827Z,9.68
2022-12-01T08:37:22.765Z,9.67
2022-12-01T08:39:51.290Z,9.69
2022-12-01T08:42:19.471Z,9.71
2022-12-01T08:44:47.635Z,9.72
2022-12-01T08:47:18.751Z,9.72
2022-12-01T08:49:47.249Z,9.74
2022-12-01T08:52:18.354Z,9.74
2022-12-01T08:54:48.052Z,9.77
2022-12-01T08:57:16.394Z,9.78
2022-12-01T08:59:45.144Z,9.78
2022-12-01T09:02:16.693Z,9.80
2022-12-01T09:04:45.503Z,9.78
2022-12-01T09:07:15.163Z,9.81
2022-12-01T09:09:45.264Z,9.82
2022-12-01T09:12:15.767Z,9.80
2022-12-01T09:14:48.166Z,9.80
2022-12-01T09:17:17.388Z,9.85
2022-12-01T09:19:45.976Z,9.78
2022-12-01T09:22:14.555Z,9.84
2022-12-01T09:24:42.947Z,9.86
2022-12-01T09:27:11.686Z,9.87
2022-12-01T09:29:41.223Z,9.91
2022-12-01T09:32:09.481Z,9.91
2022-12-01T09:34:37.803Z,9.98
2022-12-01T09:37:06.971Z,10.01
2022-12-01T09:39:35.170Z,10.08
2022-12-01T09:42:09.212Z,10.12
2022-12-01T09:44:44.107Z,10.17
2022-12-01T09:47:19.270Z,10.21
2022-12-01T09:49:54.443Z,10.26
2022-12-01T09:52:25.195Z,10.36
2022-12-01T09:54:56.137Z,10.44
2022-12-01T09:57:31.199Z,10.46
2022-12-01T10:00:08.309Z,10.48
2022-12-01T10:02:41.148Z,10.50
2022-12-01T10:05:16.021Z,10.52
2022-12-01T10:07:48.606Z,10.55
2022-12-01T10:10:21.797Z,10.58
2022-12-01T10:12:50.004Z,10.61
2022-12-01T10:15:36.320Z,10.63
2022-12-01T10:18:17.402Z,10.63
2022-12-01T10:20:53.514Z,10.67
2022-12-01T10:23:45.291Z,10.69
2022-12-01T10:26:17.201Z,10.73
2022-12-01T10:29:06.372Z,10.78
2022-12-01T10:31:49.350Z,10.85
2022-12-01T10:34:20.086Z,10.90
2022-12-01T10:36:48.524Z,10.94
2022-12-01T10:39:20.760Z,10.92
2022-12-01T10:41:50.119Z,10.96
2022-12-01T10:44:22.422Z,11.00
2022-12-01T10:46:56.077Z,11.06
2022-12-01T10:49:36.744Z,11.09
2022-12-01T10:52:04.892Z,11.12
2022-12-01T10:54:36.291Z,11.16
2022-12-01T10:57:05.847Z,11.20
2022-12-01T10:59:39.083Z,11.25
2022-12-01T11:02:18.441Z,11.24
2022-12-01T11:04:52.944Z,11.28
2022-12-01T11:07:23.703Z,11.35
2022-12-01T11:10:09.346Z,11.42
2022-12-01T11:12:37.618Z,11.44
2022-12-01T11:15:07.163Z,11.46
2022-12-01T11:17:40.645Z,11.49
2022-12-01T11:20:34.168Z,11.54
2022-12-01T11:23:32.272Z,11.59
2022-12-01T11:26:04.955Z,11.66
2022-12-01T11:28:35.259Z,11.69
2022-12-01T11:31:06.673Z,11.72
2022-12-01T11:33:46.465Z,11.74
2022-12-01T11:36:24.268Z,11.60
2022-12-01T11:38:57.652Z,11.70
2022-12-01T11:41:30.337Z,11.70
2022-12-01T11:44:01.862Z,11.71
2022-12-01T11:46:35.605Z,11.72
2022-12-01T11:49:05.298Z,11.70
2022-12-01T11:51:37.687Z,11.73
2022-12-01T11:54:13.765Z,11.85
2022-12-01T11:56:45.427Z,12.04
2022-12-01T11:59:16.823Z,12.12
2022-12-01T12:02:14.906Z,12.20
2022-12-01T12:05:15.983Z,12.22
2022-12-01T12:07:55.498Z,12.32
2022-12-01T12:10:35.435Z,12.36
2022-12-01T12:13:27.489Z,12.40
2022-12-01T12:16:06.022Z,12.42
2022-12-01T12:18:49.408Z,12.46
2022-12-01T12:21:30.190Z,12.49
2022-12-01T12:24:35.865Z,12.46
2022-12-01T12:27:12.360Z,12.42
2022-12-01T12:29:54.448Z,12.49
2022-12-01T12:32:52.328Z,12.52
2022-12-01T12:35:32.240Z,12.55
2022-12-01T12:38:10.142Z,12.61
2022-12-01T12:40:43.621Z,12.63
2022-12-01T12:43:24.023Z,12.69
2022-12-01T12:46:02.155Z,12.73
2022-12-01T12:49:03.959Z,12.74
2022-12-01T12:51:36.999Z,12.74
2022-12-01T12:54:16.511Z,12.79
2022-12-01T12:56:49.677Z,12.83
2022-12-01T12:59:20.701Z,12.87
2022-12-01T13:01:56.832Z,12.89
2022-12-01T13:04:33.430Z,12.91
2022-12-01T13:07:04.645Z,12.94
2022-12-01T13:09:37.302Z,12.99
2022-12-01T13:12:10.133Z,13.03
2022-12-01T13:14:42.175Z,13.06
2022-12-01T13:17:20.151Z,13.07
2022-12-01T13:19:49.190Z,13.11
2022-12-01T13:22:21.632Z,13.09
2022-12-01T13:24:51.836Z,13.11
2022-12-01T13:27:23.799Z,13.14
2022-12-01T13:29:54.425Z,13.13
2022-12-01T13:32:38.026Z,13.14
2022-12-01T13:35:08.240Z,13.11
2022-12-01T13:37:39.048Z,13.12
2022-12-01T13:40:23.095Z,13.09
2022-12-01T13:42:58.499Z,13.08
2022-12-01T13:45:26.782Z,13.09
2022-12-01T13:47:57.012Z,13.07
2022-12-01T13:51:01.740Z,13.10
2022-12-01T13:53:32.846Z,13.11
2022-12-01T13:56:27.619Z,13.11
2022-12-01T13:58:56.162Z,13.11
2022-12-01T14:01:49.798Z,13.11
2022-12-01T14:04:29.532Z,13.13
2022-12-01T14:07:21.057Z,13.15
2022-12-01T14:09:51.673Z,13.12
2022-12-01T14:12:23.457Z,13.11
2022-12-01T14:14:57.009Z,13.08
2022-12-01T14:17:29.583Z,13.09
2022-12-01T14:20:08.358Z,13.08
2022-12-01T14:22:40.200Z,13.07
2022-12-01T14:25:25.674Z,13.05
2022-12-01T14:27:57.745Z,13.02
2022-12-01T14:30:58.998Z,13.03
2022-12-01T14:34:00.052Z,12.99
2022-12-01T14:36:39.235Z,12.95
2022-12-01T14:39:16.061Z,12.93
2022-12-01T14:41:48.105Z,12.93
2022-12-01T14:44:24.237Z,12.92
2022-12-01T14:46:57.807Z,12.92
2022-12-01T14:49:30.758Z,12.96
2022-12-01T14:52:05.641Z,12.92
2022-12-01T14:54:40.346Z,12.89
2022-12-01T14:57:13.662Z,12.84
2022-12-01T14:59:46.234Z,12.83
2022-12-01T15:02:15.063Z,12.80
2022-12-01T15:05:08.423Z,12.78
2022-12-01T15:07:40.555Z,12.74
2022-12-01T15:10:17.801Z,12.73
2022-12-01T15:12:46.290Z,12.72
2022-12-01T15:15:23.981Z,12.69
2022-12-01T15:17:55.655Z,12.67
2022-12-01T15:20:32.979Z,12.66
2022-12-01T15:23:03.598Z,12.63
2022-12-01T15:25:35.641Z,12.60
2022-12-01T15:28:12.318Z,12.57
2022-12-01T15:30:45.142Z,12.54
2022-12-01T15:33:26.731Z,12.52
2022-12-01T15:35:56.612Z,12.50
2022-12-01T15:38:27.936Z,12.51
2022-12-01T15:43:56.092Z,12.50
2022-12-01T15:46:30.503Z,12.49
2022-12-01T15:49:09.277Z,12.44
2022-12-01T15:51:37.534Z,12.41
2022-12-01T15:54:05.935Z,12.40
2022-12-01T15:56:37.432Z,12.36
2022-12-01T15:59:09.886Z,12.34
2022-12-01T16:01:41.968Z,12.32
2022-12-01T16:04:19.482Z,12.34
2022-12-01T16:06:56.692Z,12.30
2022-12-01T16:09:29.735Z,12.29
2022-12-01T16:12:21.040Z,12.31
2022-12-01T16:14:51.962Z,12.31
2022-12-01T16:17:22.665Z,12.26
2022-12-01T16:20:18.696Z,12.26
2022-12-01T16:22:48.658Z,12.26
2022-12-01T16:25:19.378Z,12.21
2022-12-01T16:27:53.154Z,12.21
2022-12-01T16:30:23.464Z,12.17
2022-12-01T16:33:01.165Z,12.15
2022-12-01T16:35:31.515Z,12.14
2022-12-01T16:37:59.956Z,12.13
2022-12-01T16:40:28.185Z,12.09
2022-12-01T16:42:56.482Z,12.09
2022-12-01T16:45:26.804Z,12.08
2022-12-01T16:47:56.327Z,12.06
2022-12-01T16:50:24.689Z,12.05
2022-12-01T16:52:52.719Z,12.03
2022-12-01T16:55:31.189Z,12.11
2022-12-01T16:57:59.238Z,12.09
2022-12-01T17:00:27.718Z,12.07
2022-12-01T17:02:57.965Z,12.04
2022-12-01T17:05:26.426Z,12.09
2022-12-01T17:07:54.847Z,12.09
2022-12-01T17:10:24.087Z,12.05
2022-12-01T17:12:52.213Z,12.00
2022-12-01T17:15:20.380Z,12.07
2022-12-01T17:17:48.603Z,12.04
2022-12-01T17:20:18.515Z,12.00
2022-12-01T17:22:46.527Z,11.97
2022-12-01T17:25:14.716Z,11.98
2022-12-01T17:27:43.987Z,11.95
2022-12-01T17:30:13.298Z,11.87
2022-12-01T17:32:41.331Z,11.92
2022-12-01T17:35:10.373Z,11.87
2022-12-01T17:37:40.140Z,11.84
2022-12-01T17:40:13.816Z,11.88
2022-12-01T17:42:48.579Z,11.85
2022-12-01T17:45:19.228Z,11.83
2022-12-01T17:47:47.373Z,11.82
2022-12-01T17:50:15.859Z,11.77
2022-12-01T17:52:45.367Z,11.76
2022-12-01T17:55:13.455Z,11.72
2022-12-01T17:57:41.525Z,11.74
2022-12-01T18:00:11.044Z,11.67
2022-12-01T18:02:39.230Z,11.72
2022-12-01T18:05:08.246Z,11.66
2022-12-01T18:07:36.407Z,11.58
2022-12-01T18:10:06.802Z,11.54
2022-12-01T18:12:34.828Z,11.52
2022-12-01T18:15:02.993Z,11.51
2022-12-01T18:17:31.962Z,11.47
2022-12-01T18:20:00.255Z,11.48
2022-12-01T18:22:28.486Z,11.46
2022-12-01T18:24:57.649Z,11.46
2022-12-01T18:27:27.348Z,11.46
2022-12-01T18:29:58.506Z,11.44
2022-12-01T18:32:26.672Z,11.44
2022-12-01T18:34:54.876Z,11.45
2022-12-01T18:37:22.938Z,11.40
2022-12-01T18:39:51.940Z,11.41
2022-12-01T18:42:20.011Z,11.40
2022-12-01T18:44:49.794Z,11.39
2022-12-01T18:47:18.186Z,11.37
2022-12-01T18:49:46.298Z,11.35
2022-12-01T18:52:14.266Z,11.35
2022-12-01T18:54:42.495Z,11.35
2022-12-01T18:57:11.898Z,11.35
2022-12-01T18:59:40.079Z,11.38
2022-12-01T19:02:11.530Z,11.40
2022-12-01T19:04:39.631Z,11.34
2022-12-01T19:07:07.699Z,11.30
2022-12-01T19:09:35.796Z,11.29
2022-12-01T19:12:04.065Z,11.28
2022-12-01T19:14:32.217Z,11.26
2022-12-01T19:17:00.611Z,11.26
2022-12-01T19:19:35.746Z,11.26
2022-12-01T19:22:05.879Z,11.24
2022-12-01T19:24:34.128Z,11.23
2022-12-01T19:27:02.295Z,11.23
2022-12-01T19:29:30.519Z,11.25
2022-12-01T19:31:58.864Z,11.22
2022-12-01T19:34:27.022Z,11.22
2022-12-01T19:36:56.864Z,11.21
2022-12-01T19:39:25.252Z,11.20
2022-12-01T19:41:53.732Z,11.26
2022-12-01T19:44:23.307Z,11.24
2022-12-01T19:46:51.646Z,11.20
2022-12-01T19:49:19.857Z,11.17
2022-12-01T19:51:48.291Z,11.28
2022-12-01T19:54:19.547Z,11.43
2022-12-01T19:56:47.662Z,11.51
2022-12-01T19:59:16.093Z,11.51
2022-12-01T20:01:44.275Z,11.49
2022-12-01T20:04:12.720Z,11.33
2022-12-01T20:06:40.854Z,11.31
2022-12-01T20:09:09.712Z,11.32
2022-12-01T20:11:39.369Z,11.30
2022-12-01T20:14:09.286Z,11.36
2022-12-01T20:16:37.981Z,11.34
2022-12-01T20:19:06.803Z,11.33
2022-12-01T20:21:36.655Z,11.31
2022-12-01T20:24:07.577Z,11.28
2022-12-01T20:26:37.481Z,11.25
2022-12-01T20:29:10.849Z,11.22
2022-12-01T20:31:39.307Z,11.27
2022-12-01T20:34:10.688Z,11.33
2022-12-01T20:36:39.141Z,11.32
2022-12-01T20:39:08.713Z,11.33
2022-12-01T20:41:37.176Z,11.33
2022-12-01T20:44:07.455Z,11.33
2022-12-01T20:46:40.950Z,11.33
2022-12-01T20:49:09.538Z,11.32
2022-12-01T20:51:37.682Z,11.30
2022-12-01T20:56:55.834Z,11.26
2022-12-01T20:59:24.100Z,11.27
2022-12-01T21:01:53.719Z,11.24
2022-12-01T21:04:22.074Z,11.23
2022-12-01T21:06:50.967Z,11.23
2022-12-01T21:09:19.115Z,11.23
2022-12-01T21:12:06.384Z,11.16
2022-12-01T21:14:38.225Z,11.13
2022-12-01T21:17:16.353Z,11.12
2022-12-01T21:19:50.218Z,11.14
2022-12-01T21:22:19.269Z,11.17
2022-12-01T21:24:51.935Z,11.16
2022-12-01T21:27:20.266Z,11.14
2022-12-01T21:29:50.012Z,11.15
2022-12-01T21:32:24.472Z,11.14
2022-12-01T21:34:56.495Z,11.03
2022-12-01T21:37:26.223Z,10.98
2022-12-01T21:39:57.256Z,10.97
2022-12-01T21:42:29.178Z,10.95
2022-12-01T21:44:58.114Z,10.94
2022-12-01T21:47:30.098Z,10.92
2022-12-01T21:50:00.742Z,10.89
2022-12-01T21:52:32.860Z,10.90
2022-12-01T21:55:03.504Z,10.88
2022-12-01T21:57:42.854Z,10.84
2022-12-01T22:00:27.251Z,10.82
2022-12-01T22:03:15.805Z,10.83
2022-12-01T22:06:01.114Z,10.82
2022-12-01T22:08:37.162Z,10.81
2022-12-01T22:11:10.998Z,10.81
2022-12-01T22:13:42.915Z,10.79
2022-12-01T22:16:15.291Z,10.80
2022-12-01T22:18:48.258Z,10.77
2022-12-01T22:21:42.573Z,10.76
2022-12-01T22:24:25.797Z,10.76
2022-12-01T22:27:27.283Z,10.75
2022-12-01T22:29:59.585Z,10.74
2022-12-01T22:32:40.355Z,10.72
2022-12-01T22:35:23.720Z,10.73
2022-12-01T22:37:53.613Z,10.69
2022-12-01T22:40:40.681Z,10.64
2022-12-01T22:43:23.874Z,10.62
2022-12-01T22:46:10.792Z,10.60
2022-12-01T22:48:40.733Z,10.62
2022-12-01T22:51:24.353Z,10.63
2022-12-01T22:53:58.886Z,10.64
2022-12-01T22:56:40.445Z,10.65
2022-12-01T22:59:17.203Z,10.62
2022-12-01T23:01:50.202Z,10.62
2022-12-01T23:04:26.366Z,10.61
2022-12-01T23:07:04.671Z,10.61
2022-12-01T23:09:37.075Z,10.60
2022-12-01T23:12:33.427Z,10.60
2022-12-01T23:15:17.632Z,10.58
2022-12-01T23:17:45.751Z,10.58
2022-12-01T23:20:27.836Z,10.57
2022-12-01T23:22:59.723Z,10.57
2022-12-01T23:25:28.707Z,10.56
2022-12-01T23:28:01.230Z,10.55
2022-12-01T23:30:29.395Z,10.54
2022-12-01T23:33:04.726Z,10.51
2022-12-01T23:35:51.954Z,10.53
2022-12-01T23:38:24.014Z,10.52
2022-12-01T23:40:58.149Z,10.52
2022-12-01T23:43:28.292Z,10.51
2022-12-01T23:46:04.088Z,10.52
2022-12-01T23:48:35.044Z,10.52
2022-12-01T23:51:03.605Z,10.49
2022-12-01T23:53:34.135Z,10.49
2022-12-01T23:56:07.245Z,10.44
2022-12-01T23:58:36.188Z,10.46
